createdAt,value
2024-01-17T00:03:02.589Z,14.68
2024-01-17T00:08:06.782Z,15.00
2024-01-17T00:13:10.590Z,15.38
2024-01-17T00:18:20.961Z,13.82
2024-01-17T00:23:29.762Z,14.10
2024-01-17T00:28:38.526Z,12.65
2024-01-17T00:33:43.780Z,15.38
2024-01-17T00:38:52.608Z,14.35
2024-01-17T00:43:56.273Z,15.02
2024-01-17T00:49:06.358Z,14.73
2024-01-17T00:54:11.578Z,13.45
2024-01-17T00:59:15.306Z,14.90
2024-01-17T01:04:25.302Z,16.00
2024-01-17T01:09:34.120Z,16.25
2024-01-17T01:14:37.981Z,14.18
2024-01-17T01:19:48.131Z,13.55
2024-01-17T01:24:56.761Z,14.85
2024-01-17T01:30:06.502Z,12.35
2024-01-17T01:35:16.712Z,9.77
2024-01-17T01:40:25.345Z,12.80
2024-01-17T01:45:34.075Z,11.35
2024-01-17T01:50:44.287Z,11.75
2024-01-17T01:55:48.443Z,13.32
2024-01-17T02:00:58.385Z,13.52
2024-01-17T02:06:03.820Z,14.30
2024-01-17T02:11:12.821Z,9.10
2024-01-17T02:16:21.599Z,14.07
2024-01-17T02:21:31.709Z,10.32
2024-01-17T02:26:41.832Z,11.75
2024-01-17T02:31:51.095Z,9.52
2024-01-17T02:36:59.800Z,8.45
2024-01-17T02:42:09.929Z,10.32
2024-01-17T02:47:13.617Z,10.73
2024-01-17T02:52:22.258Z,10.18
2024-01-17T02:57:32.324Z,11.85
2024-01-17T03:02:36.062Z,10.27
2024-01-17T03:07:39.690Z,10.00
2024-01-17T03:12:49.809Z,9.43
2024-01-17T03:17:58.557Z,8.40
2024-01-17T03:23:07.349Z,10.07
2024-01-17T03:28:17.507Z,9.98
2024-01-17T03:33:26.302Z,10.23
2024-01-17T03:38:30.037Z,9.35
2024-01-17T03:43:40.068Z,9.40
2024-01-17T03:48:43.933Z,11.43
2024-01-17T03:53:52.731Z,10.73
2024-01-17T03:59:03.679Z,9.70
2024-01-17T04:04:12.597Z,9.95
2024-01-17T04:09:21.524Z,10.30
2024-01-17T04:14:26.850Z,9.25
2024-01-17T04:19:30.566Z,7.95
2024-01-17T04:24:39.262Z,8.77
2024-01-17T04:29:49.335Z,7.82
2024-01-17T04:34:52.967Z,8.02
2024-01-17T04:39:56.613Z,10.63
2024-01-17T04:45:01.738Z,8.70
2024-01-17T04:50:11.782Z,9.07
2024-01-17T04:55:20.651Z,8.05
2024-01-17T05:00:30.684Z,8.50
2024-01-17T05:05:39.459Z,6.13
2024-01-17T05:10:44.799Z,7.53
2024-01-17T05:15:54.861Z,8.60
2024-01-17T05:20:58.581Z,8.68
2024-01-17T05:26:07.451Z,7.50
2024-01-17T05:31:18.000Z,6.57
2024-01-17T05:36:28.103Z,6.45
2024-01-17T05:41:32.990Z,7.68
2024-01-17T05:46:43.080Z,7.00
2024-01-17T05:51:52.344Z,6.75
2024-01-17T05:57:01.708Z,9.98
2024-01-17T06:02:11.775Z,6.78
2024-01-17T06:07:20.543Z,8.93
2024-01-17T06:12:24.209Z,8.90
2024-01-17T06:17:34.237Z,9.23
2024-01-17T06:22:42.975Z,7.65
2024-01-17T06:27:51.624Z,8.80
2024-01-17T06:32:56.779Z,8.50
2024-01-17T06:38:05.779Z,8.43
2024-01-17T06:43:14.608Z,6.57
2024-01-17T06:48:24.785Z,8.07
2024-01-17T06:53:33.811Z,8.45
2024-01-17T06:58:43.735Z,7.32
2024-01-17T07:03:53.802Z,7.57
2024-01-17T07:09:02.587Z,8.15
2024-01-17T07:14:11.345Z,6.45
2024-01-17T07:19:16.464Z,7.72
2024-01-17T07:24:25.104Z,8.43
2024-01-17T07:29:28.835Z,6.47
2024-01-17T07:34:38.982Z,7.28
2024-01-17T07:39:47.806Z,6.78
2024-01-17T07:44:56.553Z,8.75
2024-01-17T07:50:07.442Z,9.23
2024-01-17T07:55:16.624Z,8.60
2024-01-17T08:00:25.446Z,5.85
2024-01-17T08:05:35.774Z,7.50
2024-01-17T08:10:44.574Z,6.55
2024-01-17T08:15:48.618Z,7.43
2024-01-17T08:20:58.740Z,7.63
2024-01-17T08:26:08.669Z,7.85
2024-01-17T08:31:17.914Z,8.88
2024-01-17T08:36:23.303Z,8.57
2024-01-17T08:41:32.010Z,9.63
2024-01-17T08:46:46.251Z,12.38
2024-01-17T08:51:56.646Z,11.73
2024-01-17T08:57:00.323Z,12.07
2024-01-17T09:02:08.982Z,11.65
2024-01-17T09:07:14.265Z,12.15
2024-01-17T09:12:23.931Z,10.15
2024-01-17T09:17:33.489Z,9.00
2024-01-17T09:22:43.605Z,9.82
2024-01-17T09:27:52.392Z,9.73
2024-01-17T09:32:56.261Z,9.15
2024-01-17T09:38:07.559Z,10.60
2024-01-17T09:43:18.075Z,11.70
2024-01-17T09:48:27.828Z,7.47
2024-01-17T09:53:38.145Z,9.05
2024-01-17T09:58:49.190Z,9.73
2024-01-17T10:03:56.568Z,10.02
2024-01-17T10:09:07.802Z,11.93
2024-01-17T10:14:11.554Z,12.45
2024-01-17T10:19:17.363Z,10.65
2024-01-17T10:24:27.902Z,12.85
2024-01-17T10:29:40.035Z,11.85
2024-01-17T10:34:43.883Z,13.30
2024-01-17T10:40:12.933Z,13.05
2024-01-17T10:45:24.826Z,9.48
2024-01-17T10:50:34.179Z,12.15
2024-01-17T10:55:40.266Z,12.75
2024-01-17T11:00:46.477Z,7.82
2024-01-17T11:05:56.670Z,9.23
2024-01-17T11:11:10.238Z,10.38
2024-01-17T11:16:20.010Z,9.75
2024-01-17T11:21:29.379Z,10.75
2024-01-17T11:26:45.916Z,9.20
2024-01-17T11:32:01.680Z,10.45
2024-01-17T11:37:10.490Z,9.35
2024-01-17T11:42:15.882Z,12.35
2024-01-17T11:47:24.659Z,12.43
2024-01-17T11:52:36.956Z,13.15
2024-01-17T11:57:47.663Z,12.20
2024-01-17T12:02:51.373Z,12.50
2024-01-17T12:08:00.295Z,13.45
2024-01-17T12:13:10.437Z,9.40
2024-01-17T12:18:21.790Z,9.75
2024-01-17T12:23:32.728Z,12.65
2024-01-17T12:28:43.250Z,11.55
2024-01-17T12:33:52.170Z,11.90
2024-01-17T12:39:05.144Z,13.30
2024-01-17T12:44:11.034Z,11.80
2024-01-17T12:49:23.141Z,11.25
2024-01-17T12:54:32.397Z,14.10
2024-01-17T12:59:37.751Z,12.80
2024-01-17T13:05:08.075Z,15.18
2024-01-17T13:10:22.667Z,15.77
2024-01-17T13:15:28.050Z,13.70
2024-01-17T13:20:31.711Z,13.35
2024-01-17T13:25:40.370Z,17.77
2024-01-17T13:30:50.413Z,17.00
2024-01-17T13:35:55.742Z,13.85
2024-01-17T13:41:04.554Z,15.90
2024-01-17T13:46:16.960Z,21.60
2024-01-17T13:51:23.370Z,16.75
2024-01-17T13:56:32.172Z,13.13
2024-01-17T14:01:42.254Z,11.18
2024-01-17T14:11:55.694Z,16.02
2024-01-17T14:17:06.367Z,18.17
2024-01-17T14:22:15.203Z,14.77
2024-01-17T14:27:24.054Z,14.73
2024-01-17T14:32:34.221Z,16.52
2024-01-17T14:37:42.996Z,13.35
2024-01-17T14:42:46.714Z,19.90
2024-01-17T14:47:51.835Z,13.85
2024-01-17T14:53:00.509Z,11.98
2024-01-17T14:58:05.181Z,14.38
2024-01-17T15:03:15.304Z,14.95
2024-01-17T15:08:26.992Z,14.55
2024-01-17T15:13:30.775Z,19.88
2024-01-17T15:18:35.908Z,17.38
2024-01-17T15:23:45.142Z,17.85
2024-01-17T15:28:53.802Z,17.80
2024-01-17T15:34:05.273Z,15.40
2024-01-17T15:39:20.122Z,16.42
2024-01-17T15:44:30.097Z,19.90
2024-01-17T15:49:40.577Z,14.85
2024-01-17T15:54:44.374Z,17.35
2024-01-17T15:59:48.133Z,14.10
2024-01-17T16:04:58.242Z,16.05
2024-01-17T16:10:08.160Z,17.38
2024-01-17T16:15:17.115Z,16.08
2024-01-17T16:20:27.346Z,16.40
2024-01-17T16:25:36.064Z,18.33
2024-01-17T16:30:42.199Z,14.23
2024-01-17T16:35:52.261Z,16.83
2024-01-17T16:41:00.968Z,15.23
2024-01-17T16:46:09.631Z,17.33
2024-01-17T16:51:15.166Z,15.57
2024-01-17T16:56:26.128Z,16.17
2024-01-17T17:01:36.652Z,17.55
2024-01-17T17:06:42.414Z,18.88
2024-01-17T17:11:51.847Z,18.88
2024-01-17T17:17:00.652Z,19.45
2024-01-17T17:22:10.696Z,19.13
2024-01-17T17:27:15.526Z,18.63
2024-01-17T17:32:25.508Z,19.50
2024-01-17T17:37:35.940Z,18.85
2024-01-17T17:42:44.576Z,17.52
2024-01-17T17:47:53.408Z,18.95
2024-01-17T17:53:04.452Z,19.98
2024-01-17T17:58:13.460Z,19.13
2024-01-17T18:03:22.352Z,20.25
2024-01-17T18:08:32.418Z,20.25
2024-01-17T18:13:46.245Z,19.50
2024-01-17T18:18:57.396Z,18.42
2024-01-17T18:24:02.581Z,17.35
2024-01-17T18:29:11.241Z,19.98
2024-01-17T18:34:23.709Z,20.90
2024-01-17T18:39:33.932Z,20.48
2024-01-17T18:44:42.751Z,19.42
2024-01-17T18:49:47.304Z,21.20
2024-01-17T18:54:57.371Z,23.98
2024-01-17T19:00:08.101Z,22.73
2024-01-17T19:05:16.828Z,21.63
2024-01-17T19:10:27.124Z,20.52
2024-01-17T19:15:35.947Z,19.80
2024-01-17T19:20:47.140Z,17.85
2024-01-17T19:25:52.374Z,21.05
2024-01-17T19:31:01.050Z,21.00
2024-01-17T19:36:10.522Z,20.42
2024-01-17T19:41:23.681Z,20.65
2024-01-17T19:46:32.418Z,20.45
2024-01-17T19:51:41.202Z,20.13
2024-01-17T19:56:51.256Z,18.35
2024-01-17T20:01:59.989Z,19.25
2024-01-17T20:07:08.885Z,19.08
2024-01-17T20:12:15.051Z,19.52
2024-01-17T20:17:18.895Z,18.95
2024-01-17T20:22:22.640Z,20.52
2024-01-17T20:27:33.745Z,18.20
2024-01-17T20:32:42.517Z,16.50
2024-01-17T20:37:46.263Z,19.27
2024-01-17T20:42:56.341Z,20.55
2024-01-17T20:48:05.701Z,18.42
2024-01-17T20:53:14.502Z,18.98
2024-01-17T20:58:19.599Z,20.52
2024-01-17T21:03:28.281Z,19.38
2024-01-17T21:08:37.016Z,20.95
2024-01-17T21:13:47.089Z,20.63
2024-01-17T21:18:55.927Z,21.52
2024-01-17T21:23:59.759Z,20.23
2024-01-17T21:29:11.589Z,19.35
2024-01-17T21:34:15.429Z,20.42
2024-01-17T21:39:24.672Z,21.33
2024-01-17T21:44:30.445Z,22.25
2024-01-17T21:49:39.232Z,22.52
2024-01-17T21:54:42.885Z,22.67
2024-01-17T21:59:53.438Z,23.33
2024-01-17T22:05:02.223Z,21.98
2024-01-17T22:10:16.620Z,23.30
2024-01-17T22:15:22.790Z,22.65
2024-01-17T22:25:39.002Z,22.92
2024-01-17T22:30:49.159Z,23.97
2024-01-17T22:35:58.098Z,22.92
2024-01-17T22:41:01.823Z,25.25
2024-01-17T22:46:11.916Z,24.33
2024-01-17T22:51:20.624Z,24.35
2024-01-17T22:56:24.447Z,25.45
2024-01-17T23:01:34.534Z,22.58
2024-01-17T23:06:43.489Z,25.17
2024-01-17T23:11:52.320Z,25.45
2024-01-17T23:17:02.463Z,25.00
2024-01-17T23:22:11.206Z,24.75
2024-01-17T23:27:19.944Z,24.42
2024-01-17T23:32:30.107Z,22.50
2024-01-17T23:37:38.946Z,23.27
2024-01-17T23:42:42.807Z,23.25
2024-01-17T23:47:53.097Z,23.70
2024-01-17T23:53:01.902Z,23.83
2024-01-17T23:58:10.898Z,25.25
